Time;durP1;ratioP1;P1;durP2;ratioP2;P2;SDS_P1;SDS_P2;PMS_P1;PMS_P2;Temp;Humidity;BMP_temperature;BMP_pressure;BME280_temperature;BME280_humidity;BME280_pressure;Samples;Min_cycle;Max_cycle;Signal;HPM_P1;HPM_P2
2023/10/02 00:01:10;;;;;;;21.33;10.75;;;;;;;16.72;100.00;101870.72;5016708;28;20021;-75
2023/10/02 00:03:40;;;;;;;29.35;11.85;;;;;;;16.71;100.00;101868.28;5020253;28;20069;-76
2023/10/02 00:06:16;;;;;;;23.02;11.90;;;;;;;16.76;100.00;101882.03;5014579;28;20116;-75
2023/10/02 00:08:42;;;;;;;26.08;10.45;;;;;;;16.76;100.00;101882.03;5018243;28;20132;-74
2023/10/02 00:14:18;;;;;;;22.88;10.18;;;;;;;16.81;100.00;101876.06;5022291;28;20404;-73
2023/10/02 00:17:00;;;;;;;20.98;9.57;;;;;;;16.77;100.00;101884.47;5010069;28;20155;-74
2023/10/02 00:19:44;;;;;;;22.48;9.32;;;;;;;16.80;100.00;101878.06;5014418;28;20044;-72
2023/10/02 00:25:00;;;;;;;22.15;10.30;;;;;;;16.78;100.00;101880.47;5023203;28;20512;-72
2023/10/02 00:27:28;;;;;;;20.40;10.23;;;;;;;16.79;100.00;101878.44;5022395;28;20037;-73
2023/10/02 00:29:58;;;;;;;17.63;8.90;;;;;;;16.82;100.00;101881.31;5025091;28;20079;-73
2023/10/02 00:32:26;;;;;;;15.02;6.88;;;;;;;16.83;100.00;101880.09;5021303;28;20033;-73
2023/10/02 00:34:52;;;;;;;22.98;10.32;;;;;;;16.83;100.00;101880.09;5025132;28;20069;-74
2023/10/02 00:37:18;;;;;;;22.83;9.27;;;;;;;16.86;100.00;101882.16;5015094;28;20087;-74
2023/10/02 00:39:47;;;;;;;19.00;8.00;;;;;;;16.89;100.00;101879.69;5021085;28;20037;-75
2023/10/02 00:42:24;;;;;;;19.98;9.95;;;;;;;16.91;100.00;101878.13;5020556;28;20576;-72
2023/10/02 00:44:56;;;;;;;22.77;9.68;;;;;;;16.92;100.00;101884.56;5024557;28;20037;-72
2023/10/02 00:47:47;;;;;;;;;;;;;;;16.92;100.00;101873.25;5029024;28;20485;-74
2023/10/02 00:50:17;;;;;;;19.40;9.52;;;;;;;16.93;100.00;101874.88;5021874;28;19917;-72
2023/10/02 00:53:06;;;;;;;20.00;7.78;;;;;;;16.90;100.00;101873.66;5015388;28;20492;-72
2023/10/02 00:55:34;;;;;;;25.35;10.93;;;;;;;16.90;100.00;101868.00;5022816;28;20507;-73
2023/10/02 00:58:04;;;;;;;17.13;8.35;;;;;;;16.88;100.00;101878.91;5012377;28;20116;-73
2023/10/02 01:00:42;;;;;;;21.35;8.82;;;;;;;16.88;100.00;101878.09;5011525;28;20029;-73
2023/10/02 01:03:16;;;;;;;17.48;8.63;;;;;;;16.84;100.00;101878.91;5016908;28;20442;-75
2023/10/02 01:05:50;;;;;;;19.02;8.18;;;;;;;16.87;100.00;101871.63;5010754;28;20725;-73
2023/10/02 01:08:25;;;;;;;20.70;9.27;;;;;;;16.85;100.00;101866.38;5028265;28;20117;-75
2023/10/02 01:10:56;;;;;;;20.35;9.43;;;;;;;16.86;100.00;101867.19;5019871;28;20055;-75
2023/10/02 01:13:32;;;;;;;22.00;8.55;;;;;;;16.86;100.00;101870.00;5025716;28;20095;-76
2023/10/02 01:16:04;;;;;;;22.23;10.25;;;;;;;16.83;100.00;101867.97;5018219;28;20036;-76
2023/10/02 01:18:31;;;;;;;21.30;8.70;;;;;;;16.84;100.00;101866.75;5023626;28;20030;-75
2023/10/02 01:20:59;;;;;;;23.58;9.85;;;;;;;16.81;100.00;101865.53;5019665;28;20137;-75
2023/10/02 01:23:33;;;;;;;17.35;9.00;;;;;;;16.82;100.00;101858.69;5015219;28;20037;-75
2023/10/02 01:26:02;;;;;;;19.45;9.40;;;;;;;16.80;100.00;101872.44;5020270;28;20057;-75
2023/10/02 01:28:51;;;;;;;23.10;9.45;;;;;;;16.79;100.00;101859.44;5018881;28;20067;-75
2023/10/02 01:31:32;;;;;;;20.42;8.68;;;;;;;16.77;100.00;101861.84;5023496;28;20037;-76
2023/10/02 01:34:02;;;;;;;16.92;8.95;;;;;;;16.75;100.00;101855.78;5020814;28;20033;-75
2023/10/02 01:36:32;;;;;;;21.17;8.57;;;;;;;16.72;100.00;101853.78;5019201;28;20471;-75
2023/10/02 01:38:59;;;;;;;20.10;8.23;;;;;;;16.74;100.00;101857.00;5011403;28;20034;-76
2023/10/02 01:41:28;;;;;;;20.92;10.27;;;;;;;16.73;100.00;101852.56;5019284;28;20486;-75
2023/10/02 01:43:56;;;;;;;20.88;8.70;;;;;;;16.71;100.00;101846.47;5020319;28;20033;-76
2023/10/02 01:46:22;;;;;;;18.52;8.63;;;;;;;16.70;100.00;101852.53;5022273;28;20040;-74
2023/10/02 01:48:48;;;;;;;20.17;9.25;;;;;;;16.70;100.00;101859.00;5012404;28;20018;-76
2023/10/02 01:53:58;;;;;;;21.95;9.23;;;;;;;16.69;100.00;101851.72;5011497;28;20037;-76
2023/10/02 01:56:29;;;;;;;19.83;9.20;;;;;;;16.71;100.00;101854.97;5018410;28;20029;-75
2023/10/02 01:59:08;;;;;;;23.60;9.52;;;;;;;16.71;100.00;101846.47;5019202;28;20056;-75
2023/10/02 02:01:46;;;;;;;25.85;10.82;;;;;;;16.69;100.00;101842.44;5013685;28;20171;-75
2023/10/02 02:04:14;;;;;;;29.85;9.70;;;;;;;16.65;100.00;101836.75;5015589;28;20033;-75
2023/10/02 02:06:51;;;;;;;15.15;7.40;;;;;;;16.63;100.00;101842.00;5019227;28;20036;-75
2023/10/02 02:09:24;;;;;;;26.20;9.45;;;;;;;16.65;100.00;101837.59;5008329;28;20040;-75
2023/10/02 02:12:07;;;;;;;23.65;9.75;;;;;;;16.62;100.00;101837.56;5014650;28;20063;-76
2023/10/02 02:14:32;;;;;;;;;;;;;;;16.61;100.00;101835.94;5017698;28;20061;-75
2023/10/02 02:16:57;;;;;;;21.20;9.20;;;;;;;16.63;100.00;101839.16;5025525;28;19952;-76
2023/10/02 02:19:23;;;;;;;17.48;7.63;;;;;;;16.61;100.00;101830.28;5014279;28;20290;-78
2023/10/02 02:21:49;;;;;;;20.75;10.23;;;;;;;16.57;100.00;101833.09;5018562;28;20845;-77
2023/10/02 02:24:14;;;;;;;21.65;8.60;;;;;;;16.54;100.00;101839.53;5022988;28;20128;-77
2023/10/02 02:26:40;;;;;;;21.85;9.90;;;;;;;16.54;100.00;101836.72;5016880;28;20109;-77
2023/10/02 02:29:23;;;;;;;22.42;9.38;;;;;;;16.54;100.00;101841.56;5026796;28;20036;-75
2023/10/02 02:31:49;;;;;;;22.13;9.27;;;;;;;16.55;100.00;101838.34;5018091;28;20026;-73
2023/10/02 02:34:14;;;;;;;20.38;9.23;;;;;;;16.52;100.00;101832.66;5014679;28;20033;-75
2023/10/02 02:36:41;;;;;;;22.88;8.73;;;;;;;16.55;100.00;101832.69;5034970;28;20111;-74
2023/10/02 02:39:17;;;;;;;25.15;9.95;;;;;;;16.55;100.00;101831.84;5015493;28;20021;-73
2023/10/02 02:41:43;;;;;;;21.02;9.75;;;;;;;16.55;100.00;101826.22;5033966;28;20025;-72
2023/10/02 02:44:29;;;;;;;20.33;9.90;;;;;;;16.54;100.00;101818.94;5021996;28;20494;-73
2023/10/02 02:46:55;;;;;;;19.63;8.88;;;;;;;16.56;100.00;101827.84;5018967;28;20136;-73
2023/10/02 02:49:21;;;;;;;17.85;8.35;;;;;;;16.54;100.00;101825.41;5022351;28;20457;-73
2023/10/02 02:51:48;;;;;;;23.40;9.98;;;;;;;16.51;100.00;101819.72;5035627;28;20061;-73
2023/10/02 02:54:15;;;;;;;17.73;7.78;;;;;;;16.51;100.00;101814.06;5026161;28;20467;-73
2023/10/02 02:56:41;;;;;;;22.02;10.20;;;;;;;16.52;100.00;101818.53;5024599;28;20187;-73
2023/10/02 02:59:08;;;;;;;24.15;10.82;;;;;;;16.49;100.00;101820.16;5031586;28;20036;-73
2023/10/02 03:01:34;;;;;;;24.58;10.48;;;;;;;16.52;100.00;101815.72;5026365;28;20375;-73
2023/10/02 03:04:11;;;;;;;25.90;11.07;;;;;;;16.49;100.00;101822.16;5017165;28;20096;-75
2023/10/02 03:06:37;;;;;;;18.38;8.80;;;;;;;16.41;100.00;101810.81;5012180;28;20058;-73
2023/10/02 03:09:05;;;;;;;19.80;9.60;;;;;;;16.41;100.00;101805.16;5015614;28;20037;-73
2023/10/02 03:11:32;;;;;;;17.52;8.85;;;;;;;16.40;100.00;101808.38;5013451;28;20117;-72
2023/10/02 03:14:22;;;;;;;20.80;9.30;;;;;;;16.40;100.00;101800.72;5025332;28;20461;-75
2023/10/02 03:16:45;;;;;;;23.27;9.45;;;;;;;16.33;100.00;101797.03;5012478;28;20396;-74
2023/10/02 03:19:13;;;;;;;20.15;9.80;;;;;;;16.29;100.00;101797.03;5020874;28;20033;-74
2023/10/02 03:21:42;;;;;;;22.55;9.73;;;;;;;16.29;100.00;101797.03;5009121;28;20021;-73
2023/10/02 03:24:08;;;;;;;22.75;8.48;;;;;;;16.29;100.00;101788.53;5015954;28;20029;-75
2023/10/02 03:29:04;;;;;;;25.92;9.48;;;;;;;16.29;100.00;101785.72;5019225;28;20037;-75
2023/10/02 03:31:37;;;;;;;22.35;10.25;;;;;;;16.27;100.00;101796.59;5014921;28;20060;-75
2023/10/02 03:34:27;;;;;;;23.80;10.75;;;;;;;16.20;100.00;101796.56;5014650;28;20042;-76
2023/10/02 03:39:59;;;;;;;21.13;10.48;;;;;;;16.22;100.00;101803.44;5012043;28;20124;-77
2023/10/02 03:42:31;;;;;;;23.08;10.50;;;;;;;16.21;100.00;101806.66;5013977;28;20531;-77
2023/10/02 03:44:57;;;;;;;21.20;9.40;;;;;;;16.22;100.00;101799.81;5014989;28;20083;-77
2023/10/02 03:47:24;;;;;;;23.05;9.38;;;;;;;16.25;100.00;101805.50;5013128;28;20030;-77
2023/10/02 03:49:50;;;;;;;22.63;9.98;;;;;;;16.23;100.00;101798.59;5015272;28;20032;-78
2023/10/02 03:52:19;;;;;;;21.90;8.50;;;;;;;16.31;100.00;101802.28;5012889;28;20489;-77
2023/10/02 03:54:45;;;;;;;22.38;9.18;;;;;;;16.28;100.00;101798.25;5021161;28;20022;-77
2023/10/02 03:57:37;;;;;;;25.35;9.82;;;;;;;16.29;100.00;101797.03;5019704;28;20072;-77
2023/10/02 04:00:16;;;;;;;23.75;10.20;;;;;;;16.25;100.00;101790.53;5023241;28;20044;-77
2023/10/02 04:02:43;;;;;;;27.83;10.65;;;;;;;16.22;100.00;101785.69;5018609;28;20095;-77
2023/10/02 04:05:10;;;;;;;20.20;9.20;;;;;;;16.12;100.00;101787.25;5016268;28;20029;-77
2023/10/02 04:07:35;;;;;;;20.90;9.30;;;;;;;16.11;100.00;101799.75;5019819;28;20033;-77
2023/10/02 04:10:06;;;;;;;21.75;9.82;;;;;;;16.19;100.00;101797.75;5021786;28;20025;-77
2023/10/02 04:12:50;;;;;;;22.90;9.90;;;;;;;16.24;100.00;101797.41;5011719;28;20045;-77
2023/10/02 04:15:16;;;;;;;20.75;9.32;;;;;;;16.23;100.00;101799.44;5012080;28;20490;-77
2023/10/02 04:17:46;;;;;;;27.25;10.27;;;;;;;16.17;100.00;101789.72;5018131;28;20033;-78
2023/10/02 04:20:27;;;;;;;21.58;9.82;;;;;;;16.22;100.00;101792.16;5017956;28;20122;-77
2023/10/02 04:22:54;;;;;;;20.25;8.80;;;;;;;16.23;100.00;101793.78;5008541;28;20030;-77
2023/10/02 04:25:24;;;;;;;22.20;9.40;;;;;;;16.28;100.00;101800.25;5018668;28;20025;-77
2023/10/02 04:32:51;;;;;;;21.92;8.50;;;;;;;16.22;100.00;101797.00;5015094;28;20651;-77
2023/10/02 04:38:08;;;;;;;23.25;8.73;;;;;;;16.24;100.00;101789.72;5015689;28;20036;-77
2023/10/02 04:40:38;;;;;;;20.42;8.95;;;;;;;16.24;100.00;101789.72;5015139;28;20037;-76
2023/10/02 04:43:19;;;;;;;24.90;11.20;;;;;;;16.19;100.00;101787.31;5014177;28;20092;-76
2023/10/02 04:45:45;;;;;;;19.98;9.57;;;;;;;16.25;100.00;101784.88;5011871;28;20029;-76
2023/10/02 04:48:11;;;;;;;23.90;10.18;;;;;;;16.29;100.00;101782.91;5020174;28;20038;-76
2023/10/02 04:50:46;;;;;;;25.40;9.45;;;;;;;16.15;100.00;101786.47;5019214;28;20044;-76
2023/10/02 04:53:19;;;;;;;22.45;8.95;;;;;;;16.22;100.00;101791.34;5022340;28;20103;-76
2023/10/02 04:55:48;;;;;;;25.08;10.40;;;;;;;16.24;100.00;101794.59;5011638;28;20037;-76
2023/10/02 04:58:19;;;;;;;25.00;11.30;;;;;;;16.16;100.00;101787.25;5024608;28;20033;-76
2023/10/02 05:03:37;;;;;;;20.65;8.43;;;;;;;16.21;100.00;101792.53;5020324;28;20030;-76
2023/10/02 05:06:04;;;;;;;21.48;7.78;;;;;;;16.20;100.00;101788.91;5016931;28;20550;-76
2023/10/02 05:08:34;;;;;;;21.83;9.18;;;;;;;16.12;100.00;101787.25;5018804;28;20033;-76
2023/10/02 05:16:14;;;;;;;21.10;9.38;;;;;;;16.07;100.00;101779.16;5016047;28;20036;-75
2023/10/02 05:18:44;;;;;;;22.83;9.45;;;;;;;16.03;100.00;101779.13;5019319;28;20048;-76
2023/10/02 05:21:16;;;;;;;29.35;10.23;;;;;;;16.06;100.00;101766.22;5017027;28;20486;-75
2023/10/02 05:23:49;;;;;;;24.58;11.55;;;;;;;15.97;100.00;101763.75;5013962;28;20556;-75
2023/10/02 05:26:29;;;;;;;22.10;9.57;;;;;;;16.00;100.00;101768.63;5022903;28;20156;-76
2023/10/02 05:28:55;;;;;;;17.65;8.25;;;;;;;16.11;100.00;101779.97;5021892;28;20037;-75
2023/10/02 05:31:21;;;;;;;26.30;10.07;;;;;;;16.10;100.00;101772.69;5014460;28;20382;-75
2023/10/02 05:33:48;;;;;;;27.45;11.32;;;;;;;16.02;100.00;101769.03;5022456;28;20037;-75
2023/10/02 05:36:19;;;;;;;24.45;10.73;;;;;;;15.87;100.00;101775.78;5021831;28;20463;-75
2023/10/02 05:39:05;;;;;;;23.33;9.85;;;;;;;15.89;100.00;101776.19;5014587;28;20029;-75
2023/10/02 05:41:41;;;;;;;21.58;9.65;;;;;;;15.98;100.00;101770.19;5016616;28;20068;-78
2023/10/02 05:44:13;;;;;;;24.77;9.48;;;;;;;16.04;100.00;101775.09;5021320;28;20103;-75
2023/10/02 05:46:54;;;;;;;19.73;8.52;;;;;;;16.17;100.00;101777.56;5019198;28;20021;-79
2023/10/02 05:49:23;;;;;;;24.08;10.15;;;;;;;16.30;100.00;101778.88;5025475;28;20041;-75
2023/10/02 05:51:49;;;;;;;22.30;9.60;;;;;;;16.17;100.00;101783.22;5024589;28;20028;-75
2023/10/02 05:54:16;;;;;;;18.92;8.52;;;;;;;16.08;100.00;101794.06;5019330;28;20090;-75
2023/10/02 05:56:41;;;;;;;26.17;7.78;;;;;;;16.12;100.00;101794.91;5015306;28;20413;-76
2023/10/02 05:59:08;;;;;;;17.08;7.03;;;;;;;16.51;100.00;101791.47;5023440;28;20025;-76
2023/10/02 06:01:35;;;;;;;25.88;10.30;;;;;;;16.65;100.00;101808.50;5020062;28;20026;-75
2023/10/02 06:04:01;;;;;;;18.50;8.68;;;;;;;16.81;100.00;101806.16;5020476;28;20044;-75
2023/10/02 06:06:35;;;;;;;21.20;8.05;;;;;;;17.12;100.00;101806.66;5024109;28;20033;-75
2023/10/02 06:09:03;;;;;;;17.33;8.02;;;;;;;16.92;100.00;101811.06;5022313;28;20401;-76
2023/10/02 06:11:33;;;;;;;20.35;8.40;;;;;;;17.13;100.00;101822.41;5031744;28;20022;-76
2023/10/02 06:14:12;;;;;;;20.58;8.18;;;;;;;17.35;100.00;101820.47;5022931;28;20510;-75
2023/10/02 06:16:40;;;;;;;19.73;8.10;;;;;;;17.21;100.00;101807.09;5018268;28;20033;-76
2023/10/02 06:19:07;;;;;;;17.70;8.20;;;;;;;17.41;100.00;101801.88;5018416;28;20033;-75
2023/10/02 06:21:46;;;;;;;19.38;8.43;;;;;;;17.62;100.00;101803.06;5011401;28;20390;-76
2023/10/02 06:24:16;;;;;;;16.15;8.20;;;;;;;17.76;100.00;101807.94;5023885;28;20557;-75
2023/10/02 06:29:33;;;;;;;18.80;8.98;;;;;;;17.43;100.00;101812.75;5024685;28;20143;-75
2023/10/02 06:31:59;;;;;;;17.13;8.48;;;;;;;17.22;100.00;101824.84;5021540;28;20116;-76
2023/10/02 06:34:38;;;;;;;21.30;9.00;;;;;;;17.00;100.00;101829.66;5024029;28;20153;-74
2023/10/02 06:37:11;;;;;;;28.42;11.20;;;;;;;16.64;100.00;101832.31;5027993;28;20535;-75
2023/10/02 06:39:40;;;;;;;26.05;9.90;;;;;;;16.56;100.00;101828.66;5012612;28;20034;-74
2023/10/02 06:42:07;;;;;;;21.60;8.07;;;;;;;16.51;100.00;101836.69;5009379;28;20033;-75
2023/10/02 06:44:52;;;;;;;24.27;9.60;;;;;;;16.49;100.00;101836.28;5018084;28;20137;-75
2023/10/02 06:47:28;;;;;;;22.55;9.00;;;;;;;16.48;100.00;101848.78;5022529;28;20033;-75
2023/10/02 06:50:02;;;;;;;20.90;9.05;;;;;;;16.38;100.00;101842.69;5028690;28;20116;-75
2023/10/02 06:52:29;;;;;;;19.58;8.23;;;;;;;16.41;100.00;101846.75;5027756;28;20127;-75
2023/10/02 06:54:56;;;;;;;21.77;9.38;;;;;;;16.44;100.00;101843.94;5022048;28;20481;-75
2023/10/02 06:57:24;;;;;;;18.50;8.35;;;;;;;16.48;100.00;101848.78;5019422;28;20460;-76
2023/10/02 06:59:53;;;;;;;22.42;10.52;;;;;;;16.43;100.00;101847.97;5016018;28;20026;-77
2023/10/02 07:02:19;;;;;;;26.50;9.43;;;;;;;16.43;100.00;101836.66;5017190;28;20057;-76
2023/10/02 07:04:47;;;;;;;19.13;9.07;;;;;;;16.43;100.00;101836.66;5017863;28;20495;-77
2023/10/02 07:07:20;;;;;;;21.23;10.02;;;;;;;16.33;100.00;101836.59;5024737;28;20037;-76
2023/10/02 07:09:48;;;;;;;24.60;11.15;;;;;;;16.31;100.00;101839.81;5019538;28;20132;-76
2023/10/02 07:12:13;;;;;;;24.63;11.80;;;;;;;16.33;100.00;101845.06;5021845;28;20116;-75
2023/10/02 07:14:41;;;;;;;28.38;11.80;;;;;;;16.20;100.00;101850.25;5010119;28;20037;-75
2023/10/02 07:17:16;;;;;;;22.67;11.05;;;;;;;16.23;100.00;101866.38;5024469;28;20028;-75
2023/10/02 07:19:49;;;;;;;20.15;9.02;;;;;;;16.22;100.00;101864.78;5016164;28;20033;-75
2023/10/02 07:22:16;;;;;;;22.10;9.23;;;;;;;16.23;100.00;101860.75;5018650;28;20061;-75
2023/10/02 07:24:46;;;;;;;21.95;8.48;;;;;;;16.32;100.00;101863.22;5021592;28;20171;-74
2023/10/02 07:27:24;;;;;;;21.25;9.52;;;;;;;16.37;100.00;101865.69;5019355;28;20046;-75
2023/10/02 07:29:59;;;;;;;26.52;9.93;;;;;;;16.42;100.00;101868.13;5025141;28;20057;-75
2023/10/02 07:32:32;;;;;;;23.90;10.38;;;;;;;16.34;100.00;101864.47;5015935;28;20704;-75
2023/10/02 07:35:17;;;;;;;28.08;11.77;;;;;;;16.32;100.00;101871.69;5025523;28;20029;-75
2023/10/02 07:37:42;;;;;;;25.05;10.07;;;;;;;16.42;100.00;101868.13;5017938;28;20033;-75
2023/10/02 07:40:09;;;;;;;22.63;10.35;;;;;;;16.51;100.00;101862.13;5029462;28;20116;-75
2023/10/02 07:42:34;;;;;;;21.23;8.50;;;;;;;16.46;100.00;101864.16;5016612;28;20033;-75
2023/10/02 07:45:12;;;;;;;18.08;8.23;;;;;;;16.50;100.00;101854.84;5025490;28;20156;-75
2023/10/02 07:50:33;;;;;;;27.92;12.35;;;;;;;16.51;100.00;101853.63;5024490;28;20087;-75
2023/10/02 07:53:01;;;;;;;23.67;9.95;;;;;;;16.46;100.00;101850.00;5020566;28;20025;-75
2023/10/02 07:55:27;;;;;;;25.95;11.73;;;;;;;16.54;100.00;101858.53;5020516;28;20037;-76
2023/10/02 07:57:58;;;;;;;30.83;11.02;;;;;;;16.56;100.00;101848.44;5015475;28;20029;-75
2023/10/02 08:00:39;;;;;;;25.90;10.27;;;;;;;16.60;100.00;101852.09;5021155;28;20033;-75
2023/10/02 08:03:29;;;;;;;26.17;11.02;;;;;;;16.63;100.00;101853.31;5022000;28;20516;-75
2023/10/02 08:05:51;;;;;;;32.25;12.10;;;;;;;16.72;100.00;101858.59;5021363;28;20069;-76
2023/10/02 08:08:18;;;;;;;26.17;12.23;;;;;;;16.79;100.00;101853.78;5011123;28;20171;-76
2023/10/02 08:10:49;;;;;;;20.23;8.77;;;;;;;16.77;100.00;101850.56;5018640;28;20124;-76
2023/10/02 08:13:18;;;;;;;36.85;12.88;;;;;;;16.90;100.00;101853.88;5015179;28;20057;-76
2023/10/02 08:15:44;;;;;;;22.85;10.18;;;;;;;16.98;100.00;101851.88;5012675;28;20088;-76
2023/10/02 08:18:17;;;;;;;24.70;10.75;;;;;;;17.05;100.00;101860.38;5017638;28;20034;-74
2023/10/02 08:20:45;;;;;;;25.27;11.95;;;;;;;17.06;100.00;101862.81;5019647;28;20029;-77
2023/10/02 08:23:21;;;;;;;30.15;12.07;;;;;;;17.20;100.00;101862.06;5021461;28;20127;-77
2023/10/02 08:26:02;;;;;;;22.75;9.75;;;;;;;17.11;100.00;101866.47;5011716;28;20117;-77
2023/10/02 08:28:37;;;;;;;31.33;11.82;;;;;;;17.25;100.00;101856.00;5017948;28;20083;-77
2023/10/02 08:31:03;;;;;;;27.13;11.98;;;;;;;17.40;100.00;101861.69;5014428;28;20021;-77
2023/10/02 08:33:31;;;;;;;28.05;10.57;;;;;;;17.31;100.00;101862.09;5018545;28;20025;-77
2023/10/02 08:35:58;;;;;;;31.23;14.23;;;;;;;17.53;100.00;101860.09;5013841;28;20029;-77
2023/10/02 08:38:25;;;;;;;29.73;13.32;;;;;;;17.68;100.00;101867.38;5012635;28;20040;-77
2023/10/02 08:40:57;;;;;;;29.95;12.75;;;;;;;17.85;100.00;101871.47;5024988;28;20087;-76
2023/10/02 08:43:27;;;;;;;28.35;12.55;;;;;;;17.82;100.00;101874.28;5031224;28;20026;-77
2023/10/02 08:45:53;;;;;;;33.85;15.05;;;;;;;17.85;100.00;101865.00;5013246;28;20033;-77
2023/10/02 08:48:20;;;;;;;26.15;12.43;;;;;;;17.90;100.00;101858.94;5013636;28;20112;-77
2023/10/02 08:50:47;;;;;;;32.47;13.82;;;;;;;17.85;100.00;101873.50;5013787;28;20492;-77
2023/10/02 08:53:20;;;;;;;33.88;13.00;;;;;;;17.90;100.00;101881.59;5012993;28;20045;-77
2023/10/02 08:58:19;;;;;;;30.20;14.00;;;;;;;17.94;100.00;101865.41;5019201;28;20037;-77
2023/10/02 09:04:21;;;;;;;27.52;11.32;;;;;;;17.72;100.00;101892.88;5010726;28;20049;-77
2023/10/02 09:06:41;;;;;;;31.33;12.55;;;;;;;17.71;100.00;101890.44;5016310;28;20038;-77
2023/10/02 09:09:17;;;;;;;28.55;13.55;;;;;;;17.65;100.00;101890.84;5020513;28;20029;-77
2023/10/02 09:11:51;;;;;;;31.45;12.70;;;;;;;17.78;100.00;101884.78;5017320;28;20040;-77
2023/10/02 09:16:47;;;;;;;40.25;15.27;;;;;;;18.06;100.00;101896.13;5021653;28;20078;-77
2023/10/02 09:19:30;;;;;;;34.13;17.13;;;;;;;18.03;100.00;101891.31;5024028;28;20084;-75
2023/10/02 09:22:06;;;;;;;39.35;14.15;;;;;;;18.00;100.00;101892.09;5019492;28;20497;-75
2023/10/02 09:24:36;;;;;;;46.30;17.15;;;;;;;18.23;100.00;101879.53;5020690;28;20032;-75
2023/10/02 09:27:26;;;;;;;48.00;18.25;;;;;;;18.17;100.00;101875.50;5016801;28;20038;-75
2023/10/02 09:32:47;;;;;;;55.72;20.45;;;;;;;18.33;100.00;101878.72;5029261;28;20040;-73
2023/10/02 09:35:29;;;;;;;50.95;20.20;;;;;;;18.37;100.00;101876.69;5025013;28;20033;-72
2023/10/02 09:38:06;;;;;;;48.72;19.02;;;;;;;18.27;100.00;101874.69;5018420;28;20115;-74
2023/10/02 09:40:54;;;;;;;61.15;21.42;;;;;;;18.30;100.00;101888.06;5013584;28;20050;-73
2023/10/02 09:43:23;;;;;;;47.60;19.88;;;;;;;18.25;100.00;101882.78;5019561;28;20040;-73
2023/10/02 09:45:53;;;;;;;48.58;18.05;;;;;;;18.28;100.00;101873.47;5015568;28;20489;-74
2023/10/02 09:51:26;;;;;;;52.10;20.05;;;;;;;18.34;100.00;101846.34;5018336;28;20061;-73
2023/10/02 09:54:14;;;;;;;47.60;19.50;;;;;;;18.44;100.00;101836.97;5012598;28;20030;-73
2023/10/02 09:57:11;;;;;;;47.85;19.00;;;;;;;18.40;100.00;101830.50;5014494;28;20568;-76
2023/10/02 09:59:45;;;;;;;56.28;19.35;;;;;;;18.42;100.00;101838.59;5026882;28;20026;-74
2023/10/02 10:02:47;;;;;;;45.97;18.45;;;;;;;18.50;100.00;101837.38;5015479;28;20025;-73
2023/10/02 10:08:33;;;;;;;47.33;17.23;;;;;;;18.76;100.00;101852.25;5022823;28;20073;-74
2023/10/02 10:10:51;;;;;;;43.97;17.73;;;;;;;18.91;100.00;101841.69;5012064;28;20064;-74
2023/10/02 10:13:26;;;;;;;46.58;19.02;;;;;;;18.84;100.00;101849.00;5023904;28;20801;-73
2023/10/02 10:16:20;;;;;;;54.45;20.92;;;;;;;19.06;100.00;101848.94;5017893;28;20398;-72
2023/10/02 10:21:56;;;;;;;46.17;17.70;;;;;;;18.92;100.00;101843.31;5016285;28;20029;-72
2023/10/02 10:24:31;;;;;;;44.47;15.93;;;;;;;19.02;100.00;101848.16;5012030;28;20029;-73
2023/10/02 10:26:56;;;;;;;38.75;17.27;;;;;;;19.15;100.00;101834.28;5020978;28;20049;-72
2023/10/02 10:29:41;;;;;;;47.67;17.80;;;;;;;19.34;100.00;101842.28;5024413;28;20036;-72
2023/10/02 10:32:23;;;;;;;39.65;16.50;;;;;;;19.28;100.00;101836.22;5013606;28;20026;-73
2023/10/02 10:35:15;;;;;;;;;;;;;;;19.42;100.00;101837.38;5016871;28;20103;-72
2023/10/02 10:37:47;;;;;;;37.83;16.88;;;;;;;19.19;100.00;101841.56;5021578;28;19924;-73
2023/10/02 10:40:44;;;;;;;;;;;;;;;19.20;100.00;101837.47;5015008;28;20281;-76
2023/10/02 10:43:14;;;;;;;46.15;16.08;;;;;;;19.23;100.00;101835.88;5015662;28;19917;-76
2023/10/02 10:45:40;;;;;;;37.20;15.13;;;;;;;19.22;100.00;101835.03;5018848;28;20033;-76
2023/10/02 10:48:19;;;;;;;42.17;16.52;;;;;;;19.53;100.00;101835.25;5019009;28;20033;-76
2023/10/02 10:51:03;;;;;;;42.97;17.42;;;;;;;19.50;100.00;101824.69;5013623;28;20047;-76
2023/10/02 10:53:29;;;;;;;39.72;16.48;;;;;;;19.76;100.00;101814.00;5018618;28;20592;-76
2023/10/02 10:56:16;;;;;;;42.08;17.10;;;;;;;19.95;100.00;101816.25;5020457;28;20132;-76
2023/10/02 10:59:10;;;;;;;40.38;16.40;;;;;;;19.92;100.00;101825.59;5020581;28;20029;-76
2023/10/02 11:01:49;;;;;;;39.78;17.55;;;;;;;20.21;100.00;101819.66;5011370;28;20687;-76
2023/10/02 11:04:26;;;;;;;39.35;17.40;;;;;;;20.21;100.00;101819.66;5023716;28;20056;-76
2023/10/02 11:06:52;;;;;;;41.13;16.33;;;;;;;20.05;100.00;101823.88;5027103;28;20516;-76
2023/10/02 11:09:18;;;;;;;36.08;15.95;;;;;;;19.91;100.00;101812.63;5014824;28;20030;-76
2023/10/02 11:11:49;;;;;;;40.08;14.98;;;;;;;20.01;100.00;101811.72;5027601;28;20028;-76
2023/10/02 11:14:44;;;;;;;35.17;14.85;;;;;;;20.13;100.00;101821.75;5021754;28;20497;-76
2023/10/02 11:17:11;;;;;;;31.08;13.07;;;;;;;20.44;100.00;101819.78;5025290;28;20032;-76
2023/10/02 11:19:46;;;;;;;37.28;13.70;;;;;;;20.65;100.00;101827.28;5014933;28;20033;-76
2023/10/02 11:22:19;;;;;;;33.67;12.73;;;;;;;20.61;100.00;101822.88;5006122;28;20048;-76
2023/10/02 11:24:55;;;;;;;28.58;12.57;;;;;;;20.78;100.00;101819.00;5015738;28;20029;-76
2023/10/02 11:27:24;;;;;;;28.08;11.43;;;;;;;20.97;100.00;101822.41;5020784;28;20057;-76
2023/10/02 11:30:03;;;;;;;29.77;12.13;;;;;;;20.78;100.00;101821.84;5013760;28;20494;-76
2023/10/02 11:32:50;;;;;;;28.30;10.25;;;;;;;21.06;100.00;101822.69;5018909;28;20397;-76
2023/10/02 11:35:15;;;;;;;23.77;9.73;;;;;;;21.09;100.00;101811.25;5017203;28;20030;-76
2023/10/02 11:37:46;;;;;;;21.73;9.35;;;;;;;21.30;100.00;101815.03;5009562;28;20054;-76
2023/10/02 11:40:12;;;;;;;21.23;9.45;;;;;;;21.34;100.00;101809.28;5011066;28;20050;-75
2023/10/02 11:42:37;;;;;;;24.23;10.70;;;;;;;21.05;100.00;101813.34;5017837;28;20029;-76
2023/10/02 11:45:07;;;;;;;25.33;10.55;;;;;;;21.11;100.00;101819.38;5014334;28;20029;-76
2023/10/02 11:47:33;;;;;;;21.95;9.52;;;;;;;21.07;100.00;101818.63;5021021;28;20584;-75
2023/10/02 11:49:59;;;;;;;20.98;10.10;;;;;;;21.20;100.00;101808.25;5020566;28;20112;-76
2023/10/02 11:52:25;;;;;;;23.30;10.23;;;;;;;21.02;100.00;101810.53;5009199;28;20117;-76
2023/10/02 11:54:50;;;;;;;21.90;9.52;;;;;;;20.98;100.00;101807.78;5024646;28;20507;-76
2023/10/02 11:57:15;;;;;;;22.42;9.60;;;;;;;21.20;100.00;101810.31;5034805;28;20036;-76
2023/10/02 11:59:42;;;;;;;26.25;9.15;;;;;;;21.22;100.00;101814.31;5019453;28;20025;-76
2023/10/02 12:02:12;;;;;;;21.58;8.93;;;;;;;21.38;100.00;101807.16;5018330;28;20466;-76
2023/10/02 12:04:38;;;;;;;24.02;10.43;;;;;;;21.37;100.00;101808.41;5023683;28;20064;-76
2023/10/02 12:07:04;;;;;;;20.73;8.70;;;;;;;21.34;100.00;101803.59;5019601;28;20484;-76
2023/10/02 12:09:29;;;;;;;23.33;9.02;;;;;;;21.16;100.00;101796.09;5020194;28;20028;-76
2023/10/02 12:11:57;;;;;;;20.42;9.27;;;;;;;21.35;100.00;101788.91;5020766;28;20033;-76
2023/10/02 12:14:25;;;;;;;20.15;9.00;;;;;;;21.30;100.00;101784.50;5013484;28;20036;-76
2023/10/02 12:16:52;;;;;;;20.30;9.75;;;;;;;21.26;100.00;101783.75;5018058;28;20048;-77
2023/10/02 12:19:17;;;;;;;20.88;8.68;;;;;;;21.40;100.00;101784.75;5020537;28;20440;-76
2023/10/02 12:21:43;;;;;;;19.23;8.10;;;;;;;21.65;100.00;101790.91;5017353;28;20025;-77
2023/10/02 12:24:08;;;;;;;21.58;7.40;;;;;;;21.65;100.00;101790.91;5019587;28;20421;-76